sensor_id;sensor_type;location;lat;lon;timestamp;P1;durP1;ratioP1;P2;durP2;ratioP2
29546;SDS011;40782;47.264;11.330;2024-03-29T00:01:55;16.08;;;13.00;;
29546;SDS011;40782;47.264;11.330;2024-03-29T00:04:21;15.25;;;12.73;;
29546;SDS011;40782;47.264;11.330;2024-03-29T00:06:48;16.13;;;13.10;;
29546;SDS011;40782;47.264;11.330;2024-03-29T00:09:14;14.10;;;11.90;;
29546;SDS011;40782;47.264;11.330;2024-03-29T00:11:40;14.35;;;10.90;;
29546;SDS011;40782;47.264;11.330;2024-03-29T00:14:06;12.23;;;10.50;;
29546;SDS011;40782;47.264;11.330;2024-03-29T00:16:32;11.25;;;10.05;;
29546;SDS011;40782;47.264;11.330;2024-03-29T00:19:00;13.15;;;10.98;;
29546;SDS011;40782;47.264;11.330;2024-03-29T00:21:26;9.95;;;8.70;;
29546;SDS011;40782;47.264;11.330;2024-03-29T00:23:52;10.90;;;9.30;;
29546;SDS011;40782;47.264;11.330;2024-03-29T00:26:18;10.77;;;9.52;;
29546;SDS011;40782;47.264;11.330;2024-03-29T00:28:44;14.10;;;10.65;;
29546;SDS011;40782;47.264;11.330;2024-03-29T00:31:10;15.25;;;12.70;;
29546;SDS011;40782;47.264;11.330;2024-03-29T00:33:36;14.48;;;12.38;;
29546;SDS011;40782;47.264;11.330;2024-03-29T00:36:05;13.32;;;11.35;;
29546;SDS011;40782;47.264;11.330;2024-03-29T00:38:31;15.40;;;12.13;;
29546;SDS011;40782;47.264;11.330;2024-03-29T00:40:57;13.35;;;11.68;;
29546;SDS011;40782;47.264;11.330;2024-03-29T00:43:23;14.38;;;11.13;;
29546;SDS011;40782;47.264;11.330;2024-03-29T00:45:49;13.73;;;11.80;;
29546;SDS011;40782;47.264;11.330;2024-03-29T00:48:15;13.95;;;12.00;;
29546;SDS011;40782;47.264;11.330;2024-03-29T00:50:43;10.23;;;9.20;;
29546;SDS011;40782;47.264;11.330;2024-03-29T00:53:10;9.73;;;8.73;;
29546;SDS011;40782;47.264;11.330;2024-03-29T00:55:36;9.50;;;8.38;;
29546;SDS011;40782;47.264;11.330;2024-03-29T00:58:03;8.73;;;7.82;;
29546;SDS011;40782;47.264;11.330;2024-03-29T01:00:29;8.43;;;7.55;;
29546;SDS011;40782;47.264;11.330;2024-03-29T01:02:55;9.68;;;7.75;;
29546;SDS011;40782;47.264;11.330;2024-03-29T01:05:21;9.52;;;8.55;;
29546;SDS011;40782;47.264;11.330;2024-03-29T01:07:47;10.32;;;8.98;;
29546;SDS011;40782;47.264;11.330;2024-03-29T01:10:15;9.48;;;8.50;;
29546;SDS011;40782;47.264;11.330;2024-03-29T01:12:41;8.82;;;7.85;;
29546;SDS011;40782;47.264;11.330;2024-03-29T01:15:07;8.45;;;7.47;;
29546;SDS011;40782;47.264;11.330;2024-03-29T01:17:34;8.02;;;7.15;;
29546;SDS011;40782;47.264;11.330;2024-03-29T01:20:00;7.18;;;6.47;;
29546;SDS011;40782;47.264;11.330;2024-03-29T01:22:26;7.85;;;7.05;;
29546;SDS011;40782;47.264;11.330;2024-03-29T01:24:52;8.38;;;7.35;;
29546;SDS011;40782;47.264;11.330;2024-03-29T01:27:20;9.95;;;7.75;;
29546;SDS011;40782;47.264;11.330;2024-03-29T01:29:46;9.32;;;7.88;;
29546;SDS011;40782;47.264;11.330;2024-03-29T01:32:12;10.05;;;8.50;;
29546;SDS011;40782;47.264;11.330;2024-03-29T01:34:38;12.52;;;10.27;;
29546;SDS011;40782;47.264;11.330;2024-03-29T01:37:04;13.82;;;11.32;;
29546;SDS011;40782;47.264;11.330;2024-03-29T01:39:30;11.85;;;10.35;;
29546;SDS011;40782;47.264;11.330;2024-03-29T01:41:57;12.20;;;10.02;;
29546;SDS011;40782;47.264;11.330;2024-03-29T01:44:24;9.48;;;7.57;;
29546;SDS011;40782;47.264;11.330;2024-03-29T01:46:51;10.23;;;8.02;;
29546;SDS011;40782;47.264;11.330;2024-03-29T01:49:18;8.63;;;7.25;;
29546;SDS011;40782;47.264;11.330;2024-03-29T01:51:46;7.50;;;6.70;;
29546;SDS011;40782;47.264;11.330;2024-03-29T01:54:13;9.40;;;8.40;;
29546;SDS011;40782;47.264;11.330;2024-03-29T01:56:41;9.15;;;8.10;;
29546;SDS011;40782;47.264;11.330;2024-03-29T01:59:10;9.27;;;7.88;;
29546;SDS011;40782;47.264;11.330;2024-03-29T02:01:42;9.73;;;8.57;;
29546;SDS011;40782;47.264;11.330;2024-03-29T02:04:11;10.13;;;8.27;;
29546;SDS011;40782;47.264;11.330;2024-03-29T02:06:38;11.45;;;8.82;;
29546;SDS011;40782;47.264;11.330;2024-03-29T02:09:06;11.35;;;9.07;;
29546;SDS011;40782;47.264;11.330;2024-03-29T02:11:33;11.15;;;9.38;;
29546;SDS011;40782;47.264;11.330;2024-03-29T02:14:00;12.35;;;9.98;;
29546;SDS011;40782;47.264;11.330;2024-03-29T02:16:28;12.35;;;10.18;;
29546;SDS011;40782;47.264;11.330;2024-03-29T02:18:56;12.48;;;9.93;;
29546;SDS011;40782;47.264;11.330;2024-03-29T02:21:22;11.13;;;9.85;;
29546;SDS011;40782;47.264;11.330;2024-03-29T02:23:57;12.70;;;10.60;;
29546;SDS011;40782;47.264;11.330;2024-03-29T02:26:26;12.32;;;9.88;;
29546;SDS011;40782;47.264;11.330;2024-03-29T02:28:56;10.35;;;8.23;;
29546;SDS011;40782;47.264;11.330;2024-03-29T02:31:24;8.82;;;7.93;;
29546;SDS011;40782;47.264;11.330;2024-03-29T02:33:51;8.82;;;7.93;;
29546;SDS011;40782;47.264;11.330;2024-03-29T02:36:18;9.80;;;8.65;;
29546;SDS011;40782;47.264;11.330;2024-03-29T02:38:45;10.30;;;8.23;;
29546;SDS011;40782;47.264;11.330;2024-03-29T02:41:14;6.97;;;6.22;;
29546;SDS011;40782;47.264;11.330;2024-03-29T02:43:41;6.03;;;5.43;;
29546;SDS011;40782;47.264;11.330;2024-03-29T02:46:08;5.35;;;4.85;;
29546;SDS011;40782;47.264;11.330;2024-03-29T02:48:35;6.10;;;5.50;;
29546;SDS011;40782;47.264;11.330;2024-03-29T02:51:02;5.63;;;5.03;;
29546;SDS011;40782;47.264;11.330;2024-03-29T02:53:29;5.65;;;5.15;;
29546;SDS011;40782;47.264;11.330;2024-03-29T02:55:55;5.93;;;5.00;;
29546;SDS011;40782;47.264;11.330;2024-03-29T02:58:24;6.22;;;5.60;;
29546;SDS011;40782;47.264;11.330;2024-03-29T03:00:50;5.75;;;5.18;;
29546;SDS011;40782;47.264;11.330;2024-03-29T03:03:17;6.00;;;5.40;;
29546;SDS011;40782;47.264;11.330;2024-03-29T03:05:43;6.95;;;6.25;;
29546;SDS011;40782;47.264;11.330;2024-03-29T03:08:10;11.15;;;7.63;;
29546;SDS011;40782;47.264;11.330;2024-03-29T03:10:55;8.95;;;8.02;;
29546;SDS011;40782;47.264;11.330;2024-03-29T03:13:29;10.00;;;8.05;;
29546;SDS011;40782;47.264;11.330;2024-03-29T03:15:56;11.18;;;8.30;;
29546;SDS011;40782;47.264;11.330;2024-03-29T03:18:23;10.18;;;8.32;;
29546;SDS011;40782;47.264;11.330;2024-03-29T03:20:51;13.43;;;9.57;;
29546;SDS011;40782;47.264;11.330;2024-03-29T03:23:17;16.33;;;11.98;;
29546;SDS011;40782;47.264;11.330;2024-03-29T03:25:45;14.00;;;10.85;;
29546;SDS011;40782;47.264;11.330;2024-03-29T03:28:12;16.65;;;12.00;;
29546;SDS011;40782;47.264;11.330;2024-03-29T03:30:41;14.73;;;11.07;;
29546;SDS011;40782;47.264;11.330;2024-03-29T03:33:07;18.88;;;12.82;;
29546;SDS011;40782;47.264;11.330;2024-03-29T03:35:34;16.05;;;11.85;;
29546;SDS011;40782;47.264;11.330;2024-03-29T03:38:01;15.80;;;11.68;;
29546;SDS011;40782;47.264;11.330;2024-03-29T03:40:28;15.27;;;11.48;;
29546;SDS011;40782;47.264;11.330;2024-03-29T03:42:54;15.70;;;10.75;;
29546;SDS011;40782;47.264;11.330;2024-03-29T03:45:21;16.52;;;11.80;;
29546;SDS011;40782;47.264;11.330;2024-03-29T03:47:49;13.82;;;10.60;;
29546;SDS011;40782;47.264;11.330;2024-03-29T03:50:16;17.23;;;12.48;;
29546;SDS011;40782;47.264;11.330;2024-03-29T03:52:42;17.52;;;11.65;;
29546;SDS011;40782;47.264;11.330;2024-03-29T03:55:09;16.80;;;12.18;;
29546;SDS011;40782;47.264;11.330;2024-03-29T03:57:35;17.92;;;11.90;;
29546;SDS011;40782;47.264;11.330;2024-03-29T04:00:04;28.15;;;12.65;;
29546;SDS011;40782;47.264;11.330;2024-03-29T04:02:30;15.30;;;11.43;;
29546;SDS011;40782;47.264;11.330;2024-03-29T04:04:59;15.52;;;11.68;;
29546;SDS011;40782;47.264;11.330;2024-03-29T04:07:25;24.60;;;13.00;;
29546;SDS011;40782;47.264;11.330;2024-03-29T04:09:52;20.92;;;12.50;;
29546;SDS011;40782;47.264;11.330;2024-03-29T04:12:18;19.10;;;12.48;;
29546;SDS011;40782;47.264;11.330;2024-03-29T04:14:45;22.95;;;13.68;;
29546;SDS011;40782;47.264;11.330;2024-03-29T04:17:12;24.95;;;13.52;;
29546;SDS011;40782;47.264;11.330;2024-03-29T04:19:39;27.42;;;13.50;;
29546;SDS011;40782;47.264;11.330;2024-03-29T04:22:06;21.15;;;13.18;;
29546;SDS011;40782;47.264;11.330;2024-03-29T04:24:33;18.80;;;12.38;;
29546;SDS011;40782;47.264;11.330;2024-03-29T04:27:00;16.63;;;12.45;;
29546;SDS011;40782;47.264;11.330;2024-03-29T04:29:29;20.02;;;13.68;;
29546;SDS011;40782;47.264;11.330;2024-03-29T04:31:56;23.98;;;14.05;;
29546;SDS011;40782;47.264;11.330;2024-03-29T04:34:22;16.55;;;12.50;;
29546;SDS011;40782;47.264;11.330;2024-03-29T04:36:49;26.20;;;12.32;;
29546;SDS011;40782;47.264;11.330;2024-03-29T04:39:18;20.27;;;12.95;;
29546;SDS011;40782;47.264;11.330;2024-03-29T04:41:45;17.65;;;13.00;;
29546;SDS011;40782;47.264;11.330;2024-03-29T04:44:13;20.45;;;13.27;;
29546;SDS011;40782;47.264;11.330;2024-03-29T04:46:49;17.05;;;12.32;;
29546;SDS011;40782;47.264;11.330;2024-03-29T04:49:18;24.35;;;14.52;;
29546;SDS011;40782;47.264;11.330;2024-03-29T04:51:49;20.35;;;13.90;;
29546;SDS011;40782;47.264;11.330;2024-03-29T04:54:18;20.95;;;14.45;;
29546;SDS011;40782;47.264;11.330;2024-03-29T04:56:45;26.02;;;15.73;;
29546;SDS011;40782;47.264;11.330;2024-03-29T04:59:12;28.25;;;14.40;;
29546;SDS011;40782;47.264;11.330;2024-03-29T05:01:42;21.45;;;14.85;;
29546;SDS011;40782;47.264;11.330;2024-03-29T05:04:10;20.63;;;14.35;;
29546;SDS011;40782;47.264;11.330;2024-03-29T05:06:38;33.08;;;23.52;;
29546;SDS011;40782;47.264;11.330;2024-03-29T05:09:05;26.70;;;16.50;;
29546;SDS011;40782;47.264;11.330;2024-03-29T05:11:33;20.83;;;14.52;;
29546;SDS011;40782;47.264;11.330;2024-03-29T05:14:00;35.30;;;15.63;;
29546;SDS011;40782;47.264;11.330;2024-03-29T05:16:29;38.08;;;14.98;;
29546;SDS011;40782;47.264;11.330;2024-03-29T05:18:57;20.67;;;15.07;;
29546;SDS011;40782;47.264;11.330;2024-03-29T05:21:24;63.10;;;16.75;;
29546;SDS011;40782;47.264;11.330;2024-03-29T05:23:51;30.63;;;14.27;;
29546;SDS011;40782;47.264;11.330;2024-03-29T05:26:19;41.63;;;16.70;;
29546;SDS011;40782;47.264;11.330;2024-03-29T05:28:47;27.92;;;15.07;;
29546;SDS011;40782;47.264;11.330;2024-03-29T05:31:14;22.27;;;14.10;;
29546;SDS011;40782;47.264;11.330;2024-03-29T05:33:41;21.38;;;14.10;;
29546;SDS011;40782;47.264;11.330;2024-03-29T05:36:10;19.95;;;13.77;;
29546;SDS011;40782;47.264;11.330;2024-03-29T05:38:38;25.77;;;12.80;;
29546;SDS011;40782;47.264;11.330;2024-03-29T05:41:05;18.60;;;12.70;;
29546;SDS011;40782;47.264;11.330;2024-03-29T05:43:32;21.67;;;13.15;;
29546;SDS011;40782;47.264;11.330;2024-03-29T05:46:01;16.90;;;11.90;;
29546;SDS011;40782;47.264;11.330;2024-03-29T05:48:28;19.23;;;12.93;;
29546;SDS011;40782;47.264;11.330;2024-03-29T05:50:55;22.45;;;13.95;;
29546;SDS011;40782;47.264;11.330;2024-03-29T05:53:23;82.20;;;37.42;;
29546;SDS011;40782;47.264;11.330;2024-03-29T05:55:50;28.13;;;14.15;;
29546;SDS011;40782;47.264;11.330;2024-03-29T05:58:17;33.30;;;18.02;;
29546;SDS011;40782;47.264;11.330;2024-03-29T06:00:45;40.35;;;24.77;;
29546;SDS011;40782;47.264;11.330;2024-03-29T06:03:14;20.60;;;13.35;;
29546;SDS011;40782;47.264;11.330;2024-03-29T06:05:42;22.98;;;15.32;;
29546;SDS011;40782;47.264;11.330;2024-03-29T06:08:09;27.88;;;17.75;;
29546;SDS011;40782;47.264;11.330;2024-03-29T06:10:36;29.52;;;20.85;;
29546;SDS011;40782;47.264;11.330;2024-03-29T06:13:03;22.30;;;15.75;;
29546;SDS011;40782;47.264;11.330;2024-03-29T06:15:35;22.60;;;15.15;;
29546;SDS011;40782;47.264;11.330;2024-03-29T06:18:21;24.00;;;15.32;;
29546;SDS011;40782;47.264;11.330;2024-03-29T06:20:49;25.13;;;15.02;;
29546;SDS011;40782;47.264;11.330;2024-03-29T06:23:16;22.75;;;14.73;;
29546;SDS011;40782;47.264;11.330;2024-03-29T06:25:44;21.25;;;14.82;;
29546;SDS011;40782;47.264;11.330;2024-03-29T06:28:11;24.35;;;15.38;;
29546;SDS011;40782;47.264;11.330;2024-03-29T06:30:40;20.13;;;14.63;;
29546;SDS011;40782;47.264;11.330;2024-03-29T06:33:07;21.55;;;14.35;;
29546;SDS011;40782;47.264;11.330;2024-03-29T06:35:37;19.80;;;13.25;;
29546;SDS011;40782;47.264;11.330;2024-03-29T06:38:04;19.30;;;13.73;;
29546;SDS011;40782;47.264;11.330;2024-03-29T06:40:31;21.95;;;14.75;;
29546;SDS011;40782;47.264;11.330;2024-03-29T06:42:58;20.33;;;13.65;;
29546;SDS011;40782;47.264;11.330;2024-03-29T06:45:26;22.50;;;14.93;;
29546;SDS011;40782;47.264;11.330;2024-03-29T06:47:54;22.23;;;14.90;;
29546;SDS011;40782;47.264;11.330;2024-03-29T06:50:22;23.02;;;15.10;;
29546;SDS011;40782;47.264;11.330;2024-03-29T06:52:50;23.38;;;14.73;;
29546;SDS011;40782;47.264;11.330;2024-03-29T06:55:17;23.17;;;14.50;;
29546;SDS011;40782;47.264;11.330;2024-03-29T06:57:44;22.17;;;14.60;;
29546;SDS011;40782;47.264;11.330;2024-03-29T07:00:12;20.70;;;14.00;;
29546;SDS011;40782;47.264;11.330;2024-03-29T07:02:39;20.88;;;14.73;;
29546;SDS011;40782;47.264;11.330;2024-03-29T07:05:07;21.45;;;14.80;;
29546;SDS011;40782;47.264;11.330;2024-03-29T07:07:36;21.00;;;14.68;;
29546;SDS011;40782;47.264;11.330;2024-03-29T07:10:07;18.25;;;13.73;;
29546;SDS011;40782;47.264;11.330;2024-03-29T07:12:35;18.63;;;13.00;;
29546;SDS011;40782;47.264;11.330;2024-03-29T07:15:02;16.63;;;12.20;;
29546;SDS011;40782;47.264;11.330;2024-03-29T07:17:29;15.65;;;12.18;;
29546;SDS011;40782;47.264;11.330;2024-03-29T07:19:56;15.52;;;11.27;;
29546;SDS011;40782;47.264;11.330;2024-03-29T07:22:24;11.68;;;9.82;;
29546;SDS011;40782;47.264;11.330;2024-03-29T07:24:53;12.35;;;9.60;;
29546;SDS011;40782;47.264;11.330;2024-03-29T07:27:21;11.98;;;9.88;;
29546;SDS011;40782;47.264;11.330;2024-03-29T07:29:48;13.02;;;10.50;;
29546;SDS011;40782;47.264;11.330;2024-03-29T07:32:15;11.77;;;10.25;;
29546;SDS011;40782;47.264;11.330;2024-03-29T07:34:42;13.27;;;10.82;;
29546;SDS011;40782;47.264;11.330;2024-03-29T07:37:09;13.35;;;10.68;;
29546;SDS011;40782;47.264;11.330;2024-03-29T07:39:40;10.45;;;9.07;;
29546;SDS011;40782;47.264;11.330;2024-03-29T07:42:07;11.02;;;9.85;;
29546;SDS011;40782;47.264;11.330;2024-03-29T07:44:36;14.60;;;9.30;;
29546;SDS011;40782;47.264;11.330;2024-03-29T07:47:03;10.73;;;9.07;;
29546;SDS011;40782;47.264;11.330;2024-03-29T07:49:30;10.02;;;9.02;;
29546;SDS011;40782;47.264;11.330;2024-03-29T07:51:57;9.82;;;8.82;;
29546;SDS011;40782;47.264;11.330;2024-03-29T07:54:27;9.95;;;8.30;;
29546;SDS011;40782;47.264;11.330;2024-03-29T07:56:54;8.57;;;7.55;;
29546;SDS011;40782;47.264;11.330;2024-03-29T07:59:21;7.40;;;6.70;;
29546;SDS011;40782;47.264;11.330;2024-03-29T08:01:50;7.10;;;6.45;;
29546;SDS011;40782;47.264;11.330;2024-03-29T08:04:17;6.75;;;6.03;;
29546;SDS011;40782;47.264;11.330;2024-03-29T08:06:44;8.15;;;7.35;;
29546;SDS011;40782;47.264;11.330;2024-03-29T08:09:11;7.45;;;6.75;;
29546;SDS011;40782;47.264;11.330;2024-03-29T08:11:39;8.90;;;6.72;;
29546;SDS011;40782;47.264;11.330;2024-03-29T08:14:06;6.20;;;5.60;;
29546;SDS011;40782;47.264;11.330;2024-03-29T08:16:34;7.38;;;5.90;;
29546;SDS011;40782;47.264;11.330;2024-03-29T08:19:02;6.82;;;6.22;;
29546;SDS011;40782;47.264;11.330;2024-03-29T08:21:30;6.28;;;5.68;;
29546;SDS011;40782;47.264;11.330;2024-03-29T08:23:57;6.45;;;5.82;;
29546;SDS011;40782;47.264;11.330;2024-03-29T08:26:25;7.28;;;5.75;;
29546;SDS011;40782;47.264;11.330;2024-03-29T08:28:53;6.93;;;6.07;;
29546;SDS011;40782;47.264;11.330;2024-03-29T08:31:21;6.60;;;5.55;;
29546;SDS011;40782;47.264;11.330;2024-03-29T08:33:48;7.50;;;5.50;;
29546;SDS011;40782;47.264;11.330;2024-03-29T08:36:17;5.05;;;4.55;;
29546;SDS011;40782;47.264;11.330;2024-03-29T08:38:44;6.43;;;4.78;;
29546;SDS011;40782;47.264;11.330;2024-03-29T08:41:12;5.72;;;4.03;;
29546;SDS011;40782;47.264;11.330;2024-03-29T08:43:39;5.53;;;5.05;;
29546;SDS011;40782;47.264;11.330;2024-03-29T08:46:06;4.38;;;3.97;;
29546;SDS011;40782;47.264;11.330;2024-03-29T08:48:34;4.93;;;4.50;;
29546;SDS011;40782;47.264;11.330;2024-03-29T08:51:05;4.97;;;4.50;;
29546;SDS011;40782;47.264;11.330;2024-03-29T08:53:33;5.53;;;4.53;;
29546;SDS011;40782;47.264;11.330;2024-03-29T08:56:00;4.90;;;4.50;;
29546;SDS011;40782;47.264;11.330;2024-03-29T08:58:27;5.40;;;4.90;;
29546;SDS011;40782;47.264;11.330;2024-03-29T09:00:55;5.88;;;4.90;;
29546;SDS011;40782;47.264;11.330;2024-03-29T09:03:22;6.63;;;5.20;;
29546;SDS011;40782;47.264;11.330;2024-03-29T09:05:50;5.70;;;5.13;;
29546;SDS011;40782;47.264;11.330;2024-03-29T09:08:18;5.20;;;4.55;;
29546;SDS011;40782;47.264;11.330;2024-03-29T09:10:47;5.13;;;4.28;;
29546;SDS011;40782;47.264;11.330;2024-03-29T09:13:14;5.32;;;4.90;;
29546;SDS011;40782;47.264;11.330;2024-03-29T09:15:41;6.50;;;5.00;;
29546;SDS011;40782;47.264;11.330;2024-03-29T09:18:08;5.07;;;4.63;;
29546;SDS011;40782;47.264;11.330;2024-03-29T09:20:55;4.65;;;4.25;;
29546;SDS011;40782;47.264;11.330;2024-03-29T09:23:23;4.75;;;4.35;;
29546;SDS011;40782;47.264;11.330;2024-03-29T09:25:52;3.60;;;3.22;;
29546;SDS011;40782;47.264;11.330;2024-03-29T09:28:19;4.75;;;4.13;;
29546;SDS011;40782;47.264;11.330;2024-03-29T09:30:46;4.55;;;3.15;;
29546;SDS011;40782;47.264;11.330;2024-03-29T09:33:14;2.70;;;2.50;;
29546;SDS011;40782;47.264;11.330;2024-03-29T09:35:41;3.20;;;2.90;;
29546;SDS011;40782;47.264;11.330;2024-03-29T09:38:09;4.28;;;2.97;;
29546;SDS011;40782;47.264;11.330;2024-03-29T09:40:36;4.68;;;3.20;;
29546;SDS011;40782;47.264;11.330;2024-03-29T09:43:05;2.25;;;2.05;;
29546;SDS011;40782;47.264;11.330;2024-03-29T09:45:34;2.33;;;2.03;;
29546;SDS011;40782;47.264;11.330;2024-03-29T09:48:03;2.28;;;2.05;;
29546;SDS011;40782;47.264;11.330;2024-03-29T09:50:31;2.60;;;1.48;;
29546;SDS011;40782;47.264;11.330;2024-03-29T09:52:58;1.50;;;1.40;;
29546;SDS011;40782;47.264;11.330;2024-03-29T09:55:25;2.22;;;1.80;;
29546;SDS011;40782;47.264;11.330;2024-03-29T09:57:54;2.97;;;1.20;;
29546;SDS011;40782;47.264;11.330;2024-03-29T10:00:24;14.02;;;8.68;;
29546;SDS011;40782;47.264;11.330;2024-03-29T10:02:53;6.25;;;4.20;;
29546;SDS011;40782;47.264;11.330;2024-03-29T10:05:22;0.90;;;0.70;;
29546;SDS011;40782;47.264;11.330;2024-03-29T10:07:50;3.45;;;1.30;;
29546;SDS011;40782;47.264;11.330;2024-03-29T10:10:18;2.05;;;0.70;;
29546;SDS011;40782;47.264;11.330;2024-03-29T10:12:45;0.50;;;0.43;;
29546;SDS011;40782;47.264;11.330;2024-03-29T10:15:12;1.70;;;0.63;;
29546;SDS011;40782;47.264;11.330;2024-03-29T10:17:45;0.32;;;0.32;;
29546;SDS011;40782;47.264;11.330;2024-03-29T10:20:15;1.00;;;0.30;;
29546;SDS011;40782;47.264;11.330;2024-03-29T10:22:43;0.73;;;0.50;;
29546;SDS011;40782;47.264;11.330;2024-03-29T10:25:12;0.47;;;0.20;;
29546;SDS011;40782;47.264;11.330;2024-03-29T10:27:40;0.80;;;0.47;;
29546;SDS011;40782;47.264;11.330;2024-03-29T10:30:08;1.33;;;0.30;;
29546;SDS011;40782;47.264;11.330;2024-03-29T10:32:37;0.28;;;0.28;;
29546;SDS011;40782;47.264;11.330;2024-03-29T10:35:07;0.30;;;0.30;;
29546;SDS011;40782;47.264;11.330;2024-03-29T10:37:35;0.82;;;0.30;;
29546;SDS011;40782;47.264;11.330;2024-03-29T10:40:06;0.57;;;0.28;;
29546;SDS011;40782;47.264;11.330;2024-03-29T10:42:36;0.63;;;0.30;;
29546;SDS011;40782;47.264;11.330;2024-03-29T10:45:04;0.40;;;0.40;;
29546;SDS011;40782;47.264;11.330;2024-03-29T10:47:32;0.20;;;0.20;;
29546;SDS011;40782;47.264;11.330;2024-03-29T10:50:00;0.20;;;0.20;;
29546;SDS011;40782;47.264;11.330;2024-03-29T10:52:31;0.38;;;0.10;;
29546;SDS011;40782;47.264;11.330;2024-03-29T10:55:00;0.20;;;0.20;;
29546;SDS011;40782;47.264;11.330;2024-03-29T10:57:27;0.30;;;0.30;;
29546;SDS011;40782;47.264;11.330;2024-03-29T11:00:00;0.20;;;0.20;;
29546;SDS011;40782;47.264;11.330;2024-03-29T11:02:34;0.08;;;0.08;;
29546;SDS011;40782;47.264;11.330;2024-03-29T11:05:09;1.38;;;0.60;;
29546;SDS011;40782;47.264;11.330;2024-03-29T11:07:42;0.40;;;0.40;;
29546;SDS011;40782;47.264;11.330;2024-03-29T11:10:13;1.00;;;0.85;;
29546;SDS011;40782;47.264;11.330;2024-03-29T11:12:45;0.73;;;0.50;;
29546;SDS011;40782;47.264;11.330;2024-03-29T11:15:22;0.20;;;0.20;;
29546;SDS011;40782;47.264;11.330;2024-03-29T11:17:55;0.22;;;0.22;;
29546;SDS011;40782;47.264;11.330;2024-03-29T11:20:23;0.30;;;0.20;;
29546;SDS011;40782;47.264;11.330;2024-03-29T11:23:00;0.20;;;0.20;;
29546;SDS011;40782;47.264;11.330;2024-03-29T11:25:40;1.48;;;0.40;;
29546;SDS011;40782;47.264;11.330;2024-03-29T11:28:08;0.28;;;0.28;;
29546;SDS011;40782;47.264;11.330;2024-03-29T11:30:45;0.13;;;0.13;;
29546;SDS011;40782;47.264;11.330;2024-03-29T11:33:29;1.75;;;0.40;;
29546;SDS011;40782;47.264;11.330;2024-03-29T11:36:00;0.10;;;0.10;;
29546;SDS011;40782;47.264;11.330;2024-03-29T11:38:35;0.32;;;0.32;;
29546;SDS011;40782;47.264;11.330;2024-03-29T11:41:06;0.38;;;0.17;;
29546;SDS011;40782;47.264;11.330;2024-03-29T11:43:34;0.55;;;0.20;;
29546;SDS011;40782;47.264;11.330;2024-03-29T11:46:03;0.20;;;0.20;;
29546;SDS011;40782;47.264;11.330;2024-03-29T11:48:31;0.15;;;0.15;;
29546;SDS011;40782;47.264;11.330;2024-03-29T11:50:59;1.65;;;0.13;;
29546;SDS011;40782;47.264;11.330;2024-03-29T11:53:28;0.10;;;0.10;;
29546;SDS011;40782;47.264;11.330;2024-03-29T11:55:58;0.38;;;0.10;;
29546;SDS011;40782;47.264;11.330;2024-03-29T11:58:26;0.17;;;0.17;;
29546;SDS011;40782;47.264;11.330;2024-03-29T12:00:54;0.20;;;0.05;;
29546;SDS011;40782;47.264;11.330;2024-03-29T12:03:24;2.40;;;0.10;;
29546;SDS011;40782;47.264;11.330;2024-03-29T12:05:53;0.70;;;0.10;;
29546;SDS011;40782;47.264;11.330;2024-03-29T12:08:24;0.10;;;0.10;;
29546;SDS011;40782;47.264;11.330;2024-03-29T12:10:51;0.15;;;0.10;;
29546;SDS011;40782;47.264;11.330;2024-03-29T12:13:20;0.10;;;0.10;;
29546;SDS011;40782;47.264;11.330;2024-03-29T12:15:47;0.10;;;0.10;;
29546;SDS011;40782;47.264;11.330;2024-03-29T12:18:14;0.00;;;0.00;;
29546;SDS011;40782;47.264;11.330;2024-03-29T12:20:41;0.55;;;0.20;;
29546;SDS011;40782;47.264;11.330;2024-03-29T12:23:14;4.78;;;0.30;;
29546;SDS011;40782;47.264;11.330;2024-03-29T12:25:43;2.55;;;0.30;;
29546;SDS011;40782;47.264;11.330;2024-03-29T12:28:11;0.40;;;0.40;;
29546;SDS011;40782;47.264;11.330;2024-03-29T12:30:41;0.50;;;0.50;;
29546;SDS011;40782;47.264;11.330;2024-03-29T12:33:11;0.40;;;0.20;;
29546;SDS011;40782;47.264;11.330;2024-03-29T12:35:41;0.20;;;0.10;;
29546;SDS011;40782;47.264;11.330;2024-03-29T12:38:10;0.28;;;0.28;;
29546;SDS011;40782;47.264;11.330;2024-03-29T12:40:38;1.35;;;0.20;;
29546;SDS011;40782;47.264;11.330;2024-03-29T12:43:08;0.65;;;0.22;;
29546;SDS011;40782;47.264;11.330;2024-03-29T12:45:36;0.20;;;0.20;;
29546;SDS011;40782;47.264;11.330;2024-03-29T12:48:10;0.17;;;0.17;;
29546;SDS011;40782;47.264;11.330;2024-03-29T12:50:39;0.20;;;0.20;;
29546;SDS011;40782;47.264;11.330;2024-03-29T12:53:07;0.20;;;0.20;;
29546;SDS011;40782;47.264;11.330;2024-03-29T12:55:36;0.10;;;0.10;;
29546;SDS011;40782;47.264;11.330;2024-03-29T12:58:05;0.10;;;0.10;;
29546;SDS011;40782;47.264;11.330;2024-03-29T13:00:34;0.80;;;0.10;;
29546;SDS011;40782;47.264;11.330;2024-03-29T13:03:02;0.17;;;0.17;;
29546;SDS011;40782;47.264;11.330;2024-03-29T13:05:31;0.22;;;0.17;;
29546;SDS011;40782;47.264;11.330;2024-03-29T13:08:00;0.20;;;0.10;;
29546;SDS011;40782;47.264;11.330;2024-03-29T13:10:28;0.10;;;0.10;;
29546;SDS011;40782;47.264;11.330;2024-03-29T13:12:55;0.10;;;0.10;;
29546;SDS011;40782;47.264;11.330;2024-03-29T13:15:23;0.20;;;0.20;;
29546;SDS011;40782;47.264;11.330;2024-03-29T13:17:52;0.10;;;0.10;;
29546;SDS011;40782;47.264;11.330;2024-03-29T13:20:20;0.10;;;0.10;;
29546;SDS011;40782;47.264;11.330;2024-03-29T13:22:50;0.10;;;0.10;;
29546;SDS011;40782;47.264;11.330;2024-03-29T13:25:19;0.10;;;0.10;;
29546;SDS011;40782;47.264;11.330;2024-03-29T13:27:48;0.10;;;0.10;;
29546;SDS011;40782;47.264;11.330;2024-03-29T13:30:18;0.00;;;0.00;;
29546;SDS011;40782;47.264;11.330;2024-03-29T13:32:46;0.10;;;0.10;;
29546;SDS011;40782;47.264;11.330;2024-03-29T13:35:13;0.32;;;0.10;;
29546;SDS011;40782;47.264;11.330;2024-03-29T13:37:41;0.28;;;0.10;;
29546;SDS011;40782;47.264;11.330;2024-03-29T13:40:12;0.13;;;0.13;;
29546;SDS011;40782;47.264;11.330;2024-03-29T13:42:40;0.20;;;0.08;;
29546;SDS011;40782;47.264;11.330;2024-03-29T13:45:08;0.00;;;0.00;;
29546;SDS011;40782;47.264;11.330;2024-03-29T13:47:36;0.30;;;0.10;;
29546;SDS011;40782;47.264;11.330;2024-03-29T13:50:04;0.50;;;0.20;;
29546;SDS011;40782;47.264;11.330;2024-03-29T13:52:32;0.20;;;0.20;;
29546;SDS011;40782;47.264;11.330;2024-03-29T13:54:59;0.05;;;0.05;;
29546;SDS011;40782;47.264;11.330;2024-03-29T13:57:29;0.43;;;0.20;;
29546;SDS011;40782;47.264;11.330;2024-03-29T13:59:56;0.30;;;0.20;;
29546;SDS011;40782;47.264;11.330;2024-03-29T14:02:24;0.30;;;0.10;;
29546;SDS011;40782;47.264;11.330;2024-03-29T14:04:53;0.40;;;0.20;;
29546;SDS011;40782;47.264;11.330;2024-03-29T14:07:20;1.80;;;0.22;;
29546;SDS011;40782;47.264;11.330;2024-03-29T14:09:49;0.57;;;0.38;;
29546;SDS011;40782;47.264;11.330;2024-03-29T14:12:17;0.98;;;0.50;;
29546;SDS011;40782;47.264;11.330;2024-03-29T14:14:49;1.77;;;0.40;;
29546;SDS011;40782;47.264;11.330;2024-03-29T14:17:18;0.45;;;0.20;;
29546;SDS011;40782;47.264;11.330;2024-03-29T14:19:46;5.88;;;0.60;;
29546;SDS011;40782;47.264;11.330;2024-03-29T14:22:15;3.45;;;1.13;;
29546;SDS011;40782;47.264;11.330;2024-03-29T14:24:44;1.90;;;0.45;;
29546;SDS011;40782;47.264;11.330;2024-03-29T14:27:11;1.52;;;0.50;;
29546;SDS011;40782;47.264;11.330;2024-03-29T14:29:39;0.95;;;0.60;;